sensor_id;sensor_type;location;lat;lon;timestamp;P1;durP1;ratioP1;P2;durP2;ratioP2
40150;SDS011;25866;52.420;10.640;2023-09-07T00:00:29;5.38;;;3.45;;
40150;SDS011;25866;52.420;10.640;2023-09-07T00:02:55;6.15;;;3.45;;
40150;SDS011;25866;52.420;10.640;2023-09-07T00:05:21;7.93;;;3.28;;
40150;SDS011;25866;52.420;10.640;2023-09-07T00:07:47;5.72;;;3.47;;
40150;SDS011;25866;52.420;10.640;2023-09-07T00:10:14;4.13;;;3.08;;
40150;SDS011;25866;52.420;10.640;2023-09-07T00:12:40;7.93;;;3.50;;
40150;SDS011;25866;52.420;10.640;2023-09-07T00:15:06;6.22;;;3.83;;
40150;SDS011;25866;52.420;10.640;2023-09-07T00:17:36;5.45;;;3.53;;
40150;SDS011;25866;52.420;10.640;2023-09-07T00:20:02;4.28;;;3.35;;
40150;SDS011;25866;52.420;10.640;2023-09-07T00:22:39;4.20;;;3.50;;
40150;SDS011;25866;52.420;10.640;2023-09-07T00:25:05;6.07;;;3.28;;
40150;SDS011;25866;52.420;10.640;2023-09-07T00:27:32;5.38;;;3.40;;
40150;SDS011;25866;52.420;10.640;2023-09-07T00:29:59;3.88;;;3.47;;
40150;SDS011;25866;52.420;10.640;2023-09-07T00:32:25;4.13;;;3.22;;
40150;SDS011;25866;52.420;10.640;2023-09-07T00:34:51;4.47;;;3.40;;
40150;SDS011;25866;52.420;10.640;2023-09-07T00:37:17;6.00;;;3.28;;
40150;SDS011;25866;52.420;10.640;2023-09-07T00:39:43;5.68;;;3.33;;
40150;SDS011;25866;52.420;10.640;2023-09-07T00:42:09;4.45;;;3.42;;
40150;SDS011;25866;52.420;10.640;2023-09-07T00:44:35;4.65;;;3.40;;
40150;SDS011;25866;52.420;10.640;2023-09-07T00:47:00;5.40;;;3.65;;
40150;SDS011;25866;52.420;10.640;2023-09-07T00:49:27;8.90;;;3.70;;
40150;SDS011;25866;52.420;10.640;2023-09-07T00:51:53;5.07;;;3.38;;
40150;SDS011;25866;52.420;10.640;2023-09-07T00:54:19;6.60;;;3.72;;
40150;SDS011;25866;52.420;10.640;2023-09-07T00:56:45;8.15;;;3.90;;
40150;SDS011;25866;52.420;10.640;2023-09-07T00:59:11;6.35;;;3.80;;
40150;SDS011;25866;52.420;10.640;2023-09-07T01:01:38;4.30;;;3.15;;
40150;SDS011;25866;52.420;10.640;2023-09-07T01:04:04;6.15;;;3.47;;
40150;SDS011;25866;52.420;10.640;2023-09-07T01:06:30;5.28;;;3.42;;
40150;SDS011;25866;52.420;10.640;2023-09-07T01:09:08;4.95;;;3.30;;
40150;SDS011;25866;52.420;10.640;2023-09-07T01:11:38;5.13;;;3.45;;
40150;SDS011;25866;52.420;10.640;2023-09-07T01:14:04;7.43;;;3.45;;
40150;SDS011;25866;52.420;10.640;2023-09-07T01:16:30;6.43;;;3.42;;
40150;SDS011;25866;52.420;10.640;2023-09-07T01:19:01;3.65;;;3.35;;
40150;SDS011;25866;52.420;10.640;2023-09-07T01:21:32;5.38;;;3.70;;
40150;SDS011;25866;52.420;10.640;2023-09-07T01:24:00;4.82;;;3.80;;
40150;SDS011;25866;52.420;10.640;2023-09-07T01:26:28;5.85;;;3.63;;
40150;SDS011;25866;52.420;10.640;2023-09-07T01:28:54;3.95;;;3.40;;
40150;SDS011;25866;52.420;10.640;2023-09-07T01:31:19;5.18;;;3.58;;
40150;SDS011;25866;52.420;10.640;2023-09-07T01:33:45;6.35;;;3.58;;
40150;SDS011;25866;52.420;10.640;2023-09-07T01:36:11;6.85;;;3.90;;
40150;SDS011;25866;52.420;10.640;2023-09-07T01:38:41;11.32;;;4.20;;
40150;SDS011;25866;52.420;10.640;2023-09-07T01:41:07;7.28;;;3.90;;
40150;SDS011;25866;52.420;10.640;2023-09-07T01:43:33;6.53;;;4.10;;
40150;SDS011;25866;52.420;10.640;2023-09-07T01:45:59;6.28;;;3.70;;
40150;SDS011;25866;52.420;10.640;2023-09-07T01:48:26;6.28;;;4.00;;
40150;SDS011;25866;52.420;10.640;2023-09-07T01:50:52;4.97;;;3.90;;
40150;SDS011;25866;52.420;10.640;2023-09-07T01:53:19;4.78;;;4.25;;
40150;SDS011;25866;52.420;10.640;2023-09-07T01:55:45;5.47;;;3.72;;
40150;SDS011;25866;52.420;10.640;2023-09-07T01:58:18;4.85;;;4.00;;
40150;SDS011;25866;52.420;10.640;2023-09-07T02:00:43;7.03;;;4.10;;
40150;SDS011;25866;52.420;10.640;2023-09-07T02:03:09;5.93;;;4.05;;
40150;SDS011;25866;52.420;10.640;2023-09-07T02:05:35;5.05;;;3.97;;
40150;SDS011;25866;52.420;10.640;2023-09-07T02:08:05;5.32;;;4.25;;
40150;SDS011;25866;52.420;10.640;2023-09-07T02:10:31;5.80;;;3.95;;
40150;SDS011;25866;52.420;10.640;2023-09-07T02:12:56;5.78;;;3.88;;
40150;SDS011;25866;52.420;10.640;2023-09-07T02:15:23;10.63;;;4.95;;
40150;SDS011;25866;52.420;10.640;2023-09-07T02:17:49;5.53;;;4.22;;
40150;SDS011;25866;52.420;10.640;2023-09-07T02:20:14;8.38;;;4.22;;
40150;SDS011;25866;52.420;10.640;2023-09-07T02:22:40;7.85;;;4.28;;
40150;SDS011;25866;52.420;10.640;2023-09-07T02:25:06;11.45;;;4.80;;
40150;SDS011;25866;52.420;10.640;2023-09-07T02:27:33;5.80;;;5.10;;
40150;SDS011;25866;52.420;10.640;2023-09-07T02:30:00;8.30;;;4.85;;
40150;SDS011;25866;52.420;10.640;2023-09-07T02:32:29;6.55;;;4.72;;
40150;SDS011;25866;52.420;10.640;2023-09-07T02:34:55;7.15;;;4.93;;
40150;SDS011;25866;52.420;10.640;2023-09-07T02:37:21;5.30;;;4.80;;
40150;SDS011;25866;52.420;10.640;2023-09-07T02:39:47;7.18;;;5.25;;
40150;SDS011;25866;52.420;10.640;2023-09-07T02:42:13;8.63;;;4.60;;
40150;SDS011;25866;52.420;10.640;2023-09-07T02:44:38;9.57;;;5.63;;
40150;SDS011;25866;52.420;10.640;2023-09-07T02:47:04;9.35;;;5.68;;
40150;SDS011;25866;52.420;10.640;2023-09-07T02:49:43;8.57;;;5.93;;
40150;SDS011;25866;52.420;10.640;2023-09-07T02:52:09;7.88;;;5.40;;
40150;SDS011;25866;52.420;10.640;2023-09-07T02:54:34;7.25;;;5.85;;
40150;SDS011;25866;52.420;10.640;2023-09-07T02:57:00;7.95;;;5.50;;
40150;SDS011;25866;52.420;10.640;2023-09-07T03:01:56;10.82;;;5.97;;
40150;SDS011;25866;52.420;10.640;2023-09-07T03:04:22;14.93;;;5.65;;
40150;SDS011;25866;52.420;10.640;2023-09-07T03:06:48;7.82;;;5.65;;
40150;SDS011;25866;52.420;10.640;2023-09-07T03:09:16;9.20;;;5.60;;
40150;SDS011;25866;52.420;10.640;2023-09-07T03:11:42;7.88;;;5.15;;
40150;SDS011;25866;52.420;10.640;2023-09-07T03:14:07;7.13;;;5.07;;
40150;SDS011;25866;52.420;10.640;2023-09-07T03:16:33;6.90;;;5.18;;
40150;SDS011;25866;52.420;10.640;2023-09-07T03:19:01;9.55;;;5.50;;
40150;SDS011;25866;52.420;10.640;2023-09-07T03:21:28;12.38;;;5.25;;
40150;SDS011;25866;52.420;10.640;2023-09-07T03:23:55;5.25;;;4.47;;
40150;SDS011;25866;52.420;10.640;2023-09-07T03:26:21;7.35;;;4.78;;
40150;SDS011;25866;52.420;10.640;2023-09-07T03:31:16;7.18;;;5.07;;
40150;SDS011;25866;52.420;10.640;2023-09-07T03:33:42;5.70;;;5.10;;
40150;SDS011;25866;52.420;10.640;2023-09-07T03:36:08;10.38;;;6.10;;
40150;SDS011;25866;52.420;10.640;2023-09-07T03:38:35;8.18;;;5.07;;
40150;SDS011;25866;52.420;10.640;2023-09-07T03:41:01;10.27;;;5.90;;
40150;SDS011;25866;52.420;10.640;2023-09-07T03:43:27;7.85;;;5.38;;
40150;SDS011;25866;52.420;10.640;2023-09-07T03:45:52;8.27;;;5.03;;
40150;SDS011;25866;52.420;10.640;2023-09-07T03:50:48;7.15;;;5.28;;
40150;SDS011;25866;52.420;10.640;2023-09-07T03:53:14;10.23;;;5.63;;
40150;SDS011;25866;52.420;10.640;2023-09-07T03:55:43;7.25;;;5.53;;
40150;SDS011;25866;52.420;10.640;2023-09-07T03:58:12;7.60;;;5.20;;
40150;SDS011;25866;52.420;10.640;2023-09-07T04:00:38;5.38;;;4.88;;
40150;SDS011;25866;52.420;10.640;2023-09-07T04:03:05;6.95;;;5.28;;
40150;SDS011;25866;52.420;10.640;2023-09-07T04:05:31;6.80;;;5.03;;
40150;SDS011;25866;52.420;10.640;2023-09-07T04:07:59;10.05;;;5.53;;
40150;SDS011;25866;52.420;10.640;2023-09-07T04:10:27;6.97;;;5.03;;
40150;SDS011;25866;52.420;10.640;2023-09-07T04:12:53;8.60;;;4.95;;
40150;SDS011;25866;52.420;10.640;2023-09-07T04:15:19;5.82;;;5.15;;
40150;SDS011;25866;52.420;10.640;2023-09-07T04:17:44;5.68;;;5.13;;
40150;SDS011;25866;52.420;10.640;2023-09-07T04:20:12;8.18;;;5.38;;
40150;SDS011;25866;52.420;10.640;2023-09-07T04:22:39;9.60;;;5.53;;
40150;SDS011;25866;52.420;10.640;2023-09-07T04:25:05;7.00;;;5.60;;
40150;SDS011;25866;52.420;10.640;2023-09-07T04:27:31;7.03;;;5.50;;
40150;SDS011;25866;52.420;10.640;2023-09-07T04:29:59;6.25;;;5.55;;
40150;SDS011;25866;52.420;10.640;2023-09-07T04:32:25;7.07;;;4.90;;
40150;SDS011;25866;52.420;10.640;2023-09-07T04:34:55;10.00;;;5.88;;
40150;SDS011;25866;52.420;10.640;2023-09-07T04:37:22;7.47;;;5.72;;
40150;SDS011;25866;52.420;10.640;2023-09-07T04:39:50;7.18;;;5.43;;
40150;SDS011;25866;52.420;10.640;2023-09-07T04:42:18;7.88;;;5.80;;
40150;SDS011;25866;52.420;10.640;2023-09-07T04:44:44;8.45;;;5.05;;
40150;SDS011;25866;52.420;10.640;2023-09-07T04:47:09;7.18;;;5.57;;
40150;SDS011;25866;52.420;10.640;2023-09-07T04:49:36;7.93;;;5.30;;
40150;SDS011;25866;52.420;10.640;2023-09-07T04:52:02;7.03;;;5.30;;
40150;SDS011;25866;52.420;10.640;2023-09-07T04:54:28;8.20;;;5.45;;
40150;SDS011;25866;52.420;10.640;2023-09-07T04:56:53;7.80;;;6.65;;
40150;SDS011;25866;52.420;10.640;2023-09-07T04:59:20;8.85;;;7.22;;
40150;SDS011;25866;52.420;10.640;2023-09-07T05:01:46;6.07;;;5.47;;
40150;SDS011;25866;52.420;10.640;2023-09-07T05:04:11;6.78;;;4.95;;
40150;SDS011;25866;52.420;10.640;2023-09-07T05:06:37;7.82;;;5.10;;
40150;SDS011;25866;52.420;10.640;2023-09-07T05:09:06;6.88;;;5.18;;
40150;SDS011;25866;52.420;10.640;2023-09-07T05:11:32;7.85;;;5.40;;
40150;SDS011;25866;52.420;10.640;2023-09-07T05:14:01;8.70;;;5.75;;
40150;SDS011;25866;52.420;10.640;2023-09-07T05:16:27;9.63;;;5.50;;
40150;SDS011;25866;52.420;10.640;2023-09-07T05:18:57;7.07;;;5.30;;
40150;SDS011;25866;52.420;10.640;2023-09-07T05:21:23;6.25;;;5.60;;
40150;SDS011;25866;52.420;10.640;2023-09-07T05:23:49;7.57;;;4.88;;
40150;SDS011;25866;52.420;10.640;2023-09-07T05:26:14;7.82;;;5.70;;
40150;SDS011;25866;52.420;10.640;2023-09-07T05:28:53;10.52;;;5.97;;
40150;SDS011;25866;52.420;10.640;2023-09-07T05:31:19;9.15;;;5.85;;
40150;SDS011;25866;52.420;10.640;2023-09-07T05:33:44;8.52;;;5.45;;
40150;SDS011;25866;52.420;10.640;2023-09-07T05:36:10;8.55;;;5.55;;
40150;SDS011;25866;52.420;10.640;2023-09-07T05:38:36;9.30;;;6.07;;
40150;SDS011;25866;52.420;10.640;2023-09-07T05:41:02;10.13;;;6.38;;
40150;SDS011;25866;52.420;10.640;2023-09-07T05:43:28;8.15;;;5.90;;
40150;SDS011;25866;52.420;10.640;2023-09-07T05:45:54;10.23;;;5.78;;
40150;SDS011;25866;52.420;10.640;2023-09-07T05:48:20;11.60;;;5.50;;
40150;SDS011;25866;52.420;10.640;2023-09-07T05:50:46;8.48;;;5.95;;
40150;SDS011;25866;52.420;10.640;2023-09-07T05:53:12;12.93;;;6.05;;
40150;SDS011;25866;52.420;10.640;2023-09-07T05:55:37;9.95;;;5.78;;
40150;SDS011;25866;52.420;10.640;2023-09-07T05:58:07;8.95;;;5.85;;
40150;SDS011;25866;52.420;10.640;2023-09-07T06:00:37;8.95;;;5.80;;
40150;SDS011;25866;52.420;10.640;2023-09-07T06:03:04;6.60;;;5.50;;
40150;SDS011;25866;52.420;10.640;2023-09-07T06:05:30;7.55;;;5.40;;
40150;SDS011;25866;52.420;10.640;2023-09-07T06:07:56;5.88;;;4.97;;
40150;SDS011;25866;52.420;10.640;2023-09-07T06:10:23;7.90;;;5.45;;
40150;SDS011;25866;52.420;10.640;2023-09-07T06:12:49;6.72;;;5.63;;
40150;SDS011;25866;52.420;10.640;2023-09-07T06:15:15;10.00;;;5.68;;
40150;SDS011;25866;52.420;10.640;2023-09-07T06:17:41;9.80;;;5.45;;
40150;SDS011;25866;52.420;10.640;2023-09-07T06:20:13;8.77;;;5.80;;
40150;SDS011;25866;52.420;10.640;2023-09-07T06:22:38;6.75;;;5.65;;
40150;SDS011;25866;52.420;10.640;2023-09-07T06:25:04;11.75;;;5.78;;
40150;SDS011;25866;52.420;10.640;2023-09-07T06:27:30;7.70;;;5.20;;
40150;SDS011;25866;52.420;10.640;2023-09-07T06:29:56;15.07;;;5.53;;
40150;SDS011;25866;52.420;10.640;2023-09-07T06:32:21;9.30;;;5.55;;
40150;SDS011;25866;52.420;10.640;2023-09-07T06:34:47;10.68;;;5.38;;
40150;SDS011;25866;52.420;10.640;2023-09-07T06:37:13;11.68;;;5.63;;
40150;SDS011;25866;52.420;10.640;2023-09-07T06:39:39;8.10;;;5.70;;
40150;SDS011;25866;52.420;10.640;2023-09-07T06:42:07;7.95;;;6.00;;
40150;SDS011;25866;52.420;10.640;2023-09-07T06:44:34;9.90;;;6.20;;
40150;SDS011;25866;52.420;10.640;2023-09-07T06:47:00;8.68;;;6.38;;
40150;SDS011;25866;52.420;10.640;2023-09-07T06:49:28;6.05;;;5.30;;
40150;SDS011;25866;52.420;10.640;2023-09-07T06:51:55;12.07;;;5.50;;
40150;SDS011;25866;52.420;10.640;2023-09-07T06:54:21;8.15;;;6.03;;
40150;SDS011;25866;52.420;10.640;2023-09-07T06:56:47;11.32;;;6.20;;
40150;SDS011;25866;52.420;10.640;2023-09-07T06:59:13;11.32;;;6.03;;
40150;SDS011;25866;52.420;10.640;2023-09-07T07:01:40;11.65;;;6.78;;
40150;SDS011;25866;52.420;10.640;2023-09-07T07:04:06;9.90;;;6.18;;
40150;SDS011;25866;52.420;10.640;2023-09-07T07:06:32;8.48;;;5.63;;
40150;SDS011;25866;52.420;10.640;2023-09-07T07:08:58;12.63;;;6.07;;
40150;SDS011;25866;52.420;10.640;2023-09-07T07:11:25;9.07;;;6.03;;
40150;SDS011;25866;52.420;10.640;2023-09-07T07:13:50;10.07;;;5.78;;
40150;SDS011;25866;52.420;10.640;2023-09-07T07:16:16;12.20;;;6.60;;
40150;SDS011;25866;52.420;10.640;2023-09-07T07:18:42;9.10;;;6.10;;
40150;SDS011;25866;52.420;10.640;2023-09-07T07:21:08;11.30;;;6.70;;
40150;SDS011;25866;52.420;10.640;2023-09-07T07:23:34;9.68;;;5.53;;
40150;SDS011;25866;52.420;10.640;2023-09-07T07:26:00;14.73;;;6.13;;
40150;SDS011;25866;52.420;10.640;2023-09-07T07:28:26;12.93;;;6.05;;
40150;SDS011;25866;52.420;10.640;2023-09-07T07:30:52;10.95;;;6.47;;
40150;SDS011;25866;52.420;10.640;2023-09-07T07:33:18;11.10;;;6.18;;
40150;SDS011;25866;52.420;10.640;2023-09-07T07:35:45;10.82;;;5.90;;
40150;SDS011;25866;52.420;10.640;2023-09-07T07:38:11;9.30;;;6.15;;
40150;SDS011;25866;52.420;10.640;2023-09-07T07:40:40;10.88;;;5.90;;
40150;SDS011;25866;52.420;10.640;2023-09-07T07:43:07;8.48;;;5.90;;
40150;SDS011;25866;52.420;10.640;2023-09-07T07:45:34;7.05;;;5.80;;
40150;SDS011;25866;52.420;10.640;2023-09-07T07:48:03;10.75;;;6.07;;
40150;SDS011;25866;52.420;10.640;2023-09-07T07:50:42;9.20;;;5.50;;
40150;SDS011;25866;52.420;10.640;2023-09-07T07:53:08;10.05;;;5.57;;
40150;SDS011;25866;52.420;10.640;2023-09-07T07:55:35;8.82;;;5.68;;
40150;SDS011;25866;52.420;10.640;2023-09-07T07:58:05;7.05;;;5.03;;
40150;SDS011;25866;52.420;10.640;2023-09-07T08:00:40;10.70;;;5.82;;
40150;SDS011;25866;52.420;10.640;2023-09-07T08:03:06;8.20;;;5.30;;
40150;SDS011;25866;52.420;10.640;2023-09-07T08:05:32;11.50;;;5.60;;
40150;SDS011;25866;52.420;10.640;2023-09-07T08:07:59;9.60;;;5.50;;
40150;SDS011;25866;52.420;10.640;2023-09-07T08:10:25;8.05;;;5.25;;
40150;SDS011;25866;52.420;10.640;2023-09-07T08:12:54;9.15;;;5.53;;
40150;SDS011;25866;52.420;10.640;2023-09-07T08:15:21;9.98;;;5.57;;
40150;SDS011;25866;52.420;10.640;2023-09-07T08:17:48;8.25;;;5.30;;
40150;SDS011;25866;52.420;10.640;2023-09-07T08:20:14;11.75;;;5.30;;
40150;SDS011;25866;52.420;10.640;2023-09-07T08:22:40;8.25;;;5.30;;
40150;SDS011;25866;52.420;10.640;2023-09-07T08:25:10;10.23;;;5.07;;
40150;SDS011;25866;52.420;10.640;2023-09-07T08:27:38;12.25;;;5.00;;
40150;SDS011;25866;52.420;10.640;2023-09-07T08:30:12;9.02;;;5.00;;
40150;SDS011;25866;52.420;10.640;2023-09-07T08:32:43;8.02;;;4.55;;
40150;SDS011;25866;52.420;10.640;2023-09-07T08:35:11;9.48;;;5.03;;
40150;SDS011;25866;52.420;10.640;2023-09-07T08:37:42;7.75;;;4.93;;
40150;SDS011;25866;52.420;10.640;2023-09-07T08:40:08;7.25;;;4.50;;
40150;SDS011;25866;52.420;10.640;2023-09-07T08:42:37;8.80;;;5.25;;
40150;SDS011;25866;52.420;10.640;2023-09-07T08:45:04;6.93;;;4.95;;
40150;SDS011;25866;52.420;10.640;2023-09-07T08:47:36;7.53;;;4.78;;
40150;SDS011;25866;52.420;10.640;2023-09-07T08:50:04;7.65;;;4.88;;
40150;SDS011;25866;52.420;10.640;2023-09-07T08:52:42;9.32;;;4.85;;
40150;SDS011;25866;52.420;10.640;2023-09-07T08:55:08;10.32;;;4.93;;
40150;SDS011;25866;52.420;10.640;2023-09-07T08:57:36;6.78;;;4.90;;
40150;SDS011;25866;52.420;10.640;2023-09-07T09:00:02;9.23;;;5.32;;
40150;SDS011;25866;52.420;10.640;2023-09-07T09:02:34;7.47;;;4.90;;
40150;SDS011;25866;52.420;10.640;2023-09-07T09:05:02;7.68;;;4.93;;
40150;SDS011;25866;52.420;10.640;2023-09-07T09:07:29;7.18;;;4.35;;
40150;SDS011;25866;52.420;10.640;2023-09-07T09:10:07;11.65;;;5.13;;
40150;SDS011;25866;52.420;10.640;2023-09-07T09:12:46;8.18;;;5.35;;
40150;SDS011;25866;52.420;10.640;2023-09-07T09:15:12;6.20;;;4.80;;
40150;SDS011;25866;52.420;10.640;2023-09-07T09:17:38;5.43;;;4.72;;
40150;SDS011;25866;52.420;10.640;2023-09-07T09:20:03;8.82;;;4.75;;
40150;SDS011;25866;52.420;10.640;2023-09-07T09:25:04;8.15;;;4.68;;
40150;SDS011;25866;52.420;10.640;2023-09-07T09:27:30;7.95;;;4.80;;
40150;SDS011;25866;52.420;10.640;2023-09-07T09:29:56;8.38;;;4.35;;
40150;SDS011;25866;52.420;10.640;2023-09-07T09:32:23;5.95;;;4.32;;
40150;SDS011;25866;52.420;10.640;2023-09-07T09:34:50;5.95;;;4.85;;
40150;SDS011;25866;52.420;10.640;2023-09-07T09:37:16;7.18;;;4.80;;
40150;SDS011;25866;52.420;10.640;2023-09-07T09:39:44;6.03;;;4.63;;
40150;SDS011;25866;52.420;10.640;2023-09-07T09:44:48;6.80;;;4.55;;
40150;SDS011;25866;52.420;10.640;2023-09-07T09:47:15;7.57;;;4.88;;
40150;SDS011;25866;52.420;10.640;2023-09-07T09:49:42;6.63;;;4.85;;
40150;SDS011;25866;52.420;10.640;2023-09-07T09:52:09;7.03;;;4.22;;
40150;SDS011;25866;52.420;10.640;2023-09-07T09:54:37;10.50;;;5.07;;
40150;SDS011;25866;52.420;10.640;2023-09-07T09:57:03;6.32;;;4.75;;
40150;SDS011;25866;52.420;10.640;2023-09-07T09:59:31;6.63;;;4.65;;
40150;SDS011;25866;52.420;10.640;2023-09-07T10:01:57;7.47;;;5.20;;
40150;SDS011;25866;52.420;10.640;2023-09-07T10:04:25;7.72;;;4.82;;
40150;SDS011;25866;52.420;10.640;2023-09-07T10:07:09;5.90;;;4.68;;
40150;SDS011;25866;52.420;10.640;2023-09-07T10:09:35;8.25;;;5.25;;
40150;SDS011;25866;52.420;10.640;2023-09-07T10:12:03;6.70;;;4.93;;
40150;SDS011;25866;52.420;10.640;2023-09-07T10:14:39;6.25;;;4.97;;
40150;SDS011;25866;52.420;10.640;2023-09-07T10:17:06;7.75;;;4.57;;
40150;SDS011;25866;52.420;10.640;2023-09-07T10:19:34;9.43;;;4.55;;
40150;SDS011;25866;52.420;10.640;2023-09-07T10:22:03;7.00;;;4.85;;
40150;SDS011;25866;52.420;10.640;2023-09-07T10:24:30;6.72;;;4.57;;
40150;SDS011;25866;52.420;10.640;2023-09-07T10:27:04;5.95;;;4.82;;
40150;SDS011;25866;52.420;10.640;2023-09-07T10:29:40;7.10;;;4.50;;
40150;SDS011;25866;52.420;10.640;2023-09-07T10:32:13;5.30;;;4.53;;
40150;SDS011;25866;52.420;10.640;2023-09-07T10:34:40;7.32;;;4.57;;
40150;SDS011;25866;52.420;10.640;2023-09-07T10:37:10;4.88;;;3.78;;
40150;SDS011;25866;52.420;10.640;2023-09-07T10:39:40;8.82;;;4.22;;
40150;SDS011;25866;52.420;10.640;2023-09-07T10:42:08;6.05;;;4.55;;
40150;SDS011;25866;52.420;10.640;2023-09-07T10:44:45;4.80;;;4.07;;
40150;SDS011;25866;52.420;10.640;2023-09-07T10:47:10;6.78;;;4.78;;
40150;SDS011;25866;52.420;10.640;2023-09-07T10:49:40;9.43;;;4.50;;
40150;SDS011;25866;52.420;10.640;2023-09-07T10:52:10;7.05;;;4.40;;
40150;SDS011;25866;52.420;10.640;2023-09-07T10:54:36;5.13;;;3.78;;
40150;SDS011;25866;52.420;10.640;2023-09-07T10:57:08;6.43;;;4.20;;
40150;SDS011;25866;52.420;10.640;2023-09-07T10:59:34;5.57;;;4.30;;
40150;SDS011;25866;52.420;10.640;2023-09-07T11:02:06;4.78;;;4.22;;
40150;SDS011;25866;52.420;10.640;2023-09-07T11:04:32;6.00;;;4.18;;
40150;SDS011;25866;52.420;10.640;2023-09-07T11:06:58;7.82;;;4.00;;
40150;SDS011;25866;52.420;10.640;2023-09-07T11:09:24;5.82;;;3.90;;
40150;SDS011;25866;52.420;10.640;2023-09-07T11:14:21;5.25;;;4.03;;
40150;SDS011;25866;52.420;10.640;2023-09-07T11:16:47;14.93;;;4.35;;
40150;SDS011;25866;52.420;10.640;2023-09-07T11:19:13;7.07;;;3.72;;
40150;SDS011;25866;52.420;10.640;2023-09-07T11:21:40;7.05;;;4.03;;
40150;SDS011;25866;52.420;10.640;2023-09-07T11:24:06;4.93;;;4.13;;
40150;SDS011;25866;52.420;10.640;2023-09-07T11:26:45;6.07;;;4.07;;
40150;SDS011;25866;52.420;10.640;2023-09-07T11:29:15;8.05;;;3.83;;
40150;SDS011;25866;52.420;10.640;2023-09-07T11:31:45;6.95;;;4.40;;
40150;SDS011;25866;52.420;10.640;2023-09-07T11:34:14;10.60;;;4.47;;
40150;SDS011;25866;52.420;10.640;2023-09-07T11:36:41;6.97;;;4.20;;
40150;SDS011;25866;52.420;10.640;2023-09-07T11:39:08;7.32;;;3.83;;
40150;SDS011;25866;52.420;10.640;2023-09-07T11:41:40;5.30;;;3.80;;
40150;SDS011;25866;52.420;10.640;2023-09-07T11:44:06;4.80;;;3.80;;
40150;SDS011;25866;52.420;10.640;2023-09-07T11:46:32;7.28;;;3.70;;
40150;SDS011;25866;52.420;10.640;2023-09-07T11:48:58;4.57;;;3.53;;
40150;SDS011;25866;52.420;10.640;2023-09-07T11:51:27;6.68;;;3.60;;
40150;SDS011;25866;52.420;10.640;2023-09-07T11:53:53;5.15;;;3.50;;
40150;SDS011;25866;52.420;10.640;2023-09-07T11:56:19;5.28;;;3.88;;
40150;SDS011;25866;52.420;10.640;2023-09-07T11:58:45;7.32;;;3.80;;
40150;SDS011;25866;52.420;10.640;2023-09-07T12:01:11;5.80;;;3.92;;
40150;SDS011;25866;52.420;10.640;2023-09-07T12:03:38;6.07;;;3.83;;
40150;SDS011;25866;52.420;10.640;2023-09-07T12:06:03;6.93;;;4.13;;
40150;SDS011;25866;52.420;10.640;2023-09-07T12:08:29;6.15;;;3.50;;
40150;SDS011;25866;52.420;10.640;2023-09-07T12:10:55;5.05;;;3.60;;
40150;SDS011;25866;52.420;10.640;2023-09-07T12:13:20;5.85;;;3.88;;
40150;SDS011;25866;52.420;10.640;2023-09-07T12:15:46;6.30;;;3.70;;
40150;SDS011;25866;52.420;10.640;2023-09-07T12:18:12;6.88;;;3.75;;
40150;SDS011;25866;52.420;10.640;2023-09-07T12:20:38;6.03;;;3.58;;
40150;SDS011;25866;52.420;10.640;2023-09-07T12:23:04;12.70;;;3.60;;
40150;SDS011;25866;52.420;10.640;2023-09-07T12:25:29;5.10;;;3.50;;
40150;SDS011;25866;52.420;10.640;2023-09-07T12:27:55;6.32;;;3.88;;
40150;SDS011;25866;52.420;10.640;2023-09-07T12:30:21;8.18;;;3.88;;
40150;SDS011;25866;52.420;10.640;2023-09-07T12:32:48;4.40;;;3.60;;
40150;SDS011;25866;52.420;10.640;2023-09-07T12:35:16;7.05;;;3.67;;
40150;SDS011;25866;52.420;10.640;2023-09-07T12:37:42;4.95;;;3.42;;
40150;SDS011;25866;52.420;10.640;2023-09-07T12:40:08;6.20;;;4.15;;
40150;SDS011;25866;52.420;10.640;2023-09-07T12:42:41;8.88;;;3.83;;
40150;SDS011;25866;52.420;10.640;2023-09-07T12:45:11;5.30;;;3.65;;
40150;SDS011;25866;52.420;10.640;2023-09-07T12:47:37;8.55;;;3.63;;
40150;SDS011;25866;52.420;10.640;2023-09-07T12:50:04;5.97;;;4.00;;
40150;SDS011;25866;52.420;10.640;2023-09-07T12:52:31;4.93;;;3.80;;
40150;SDS011;25866;52.420;10.640;2023-09-07T12:54:57;7.72;;;3.60;;
40150;SDS011;25866;52.420;10.640;2023-09-07T12:57:23;7.22;;;4.32;;
40150;SDS011;25866;52.420;10.640;2023-09-07T12:59:48;8.27;;;4.35;;
40150;SDS011;25866;52.420;10.640;2023-09-07T13:02:14;11.13;;;4.05;;
40150;SDS011;25866;52.420;10.640;2023-09-07T13:04:41;6.65;;;3.65;;
40150;SDS011;25866;52.420;10.640;2023-09-07T13:07:07;6.80;;;3.97;;
40150;SDS011;25866;52.420;10.640;2023-09-07T13:09:32;4.78;;;3.75;;
40150;SDS011;25866;52.420;10.640;2023-09-07T13:11:58;6.80;;;3.92;;
40150;SDS011;25866;52.420;10.640;2023-09-07T13:14:24;5.88;;;3.83;;
40150;SDS011;25866;52.420;10.640;2023-09-07T13:16:49;8.85;;;3.90;;
40150;SDS011;25866;52.420;10.640;2023-09-07T13:19:16;7.05;;;4.20;;
40150;SDS011;25866;52.420;10.640;2023-09-07T13:21:41;6.60;;;3.88;;
40150;SDS011;25866;52.420;10.640;2023-09-07T13:26:37;7.38;;;3.85;;
40150;SDS011;25866;52.420;10.640;2023-09-07T13:29:05;4.55;;;3.65;;
40150;SDS011;25866;52.420;10.640;2023-09-07T13:31:30;3.80;;;3.38;;
40150;SDS011;25866;52.420;10.640;2023-09-07T13:36:26;5.32;;;3.67;;
40150;SDS011;25866;52.420;10.640;2023-09-07T13:38:51;4.32;;;3.47;;
40150;SDS011;25866;52.420;10.640;2023-09-07T13:41:17;7.35;;;4.10;;
40150;SDS011;25866;52.420;10.640;2023-09-07T13:43:43;8.52;;;4.22;;
40150;SDS011;25866;52.420;10.640;2023-09-07T13:46:08;5.95;;;4.05;;
40150;SDS011;25866;52.420;10.640;2023-09-07T13:48:34;7.47;;;3.80;;
40150;SDS011;25866;52.420;10.640;2023-09-07T13:51:00;5.78;;;3.60;;
40150;SDS011;25866;52.420;10.640;2023-09-07T13:53:25;6.75;;;3.55;;
40150;SDS011;25866;52.420;10.640;2023-09-07T13:55:51;6.82;;;3.85;;
40150;SDS011;25866;52.420;10.640;2023-09-07T13:58:17;6.70;;;3.70;;
40150;SDS011;25866;52.420;10.640;2023-09-07T14:00:42;11.02;;;4.13;;
40150;SDS011;25866;52.420;10.640;2023-09-07T14:03:08;7.63;;;3.78;;
40150;SDS011;25866;52.420;10.640;2023-09-07T14:05:34;8.98;;;3.20;;
40150;SDS011;25866;52.420;10.640;2023-09-07T14:08:00;6.78;;;3.70;;
40150;SDS011;25866;52.420;10.640;2023-09-07T14:10:25;6.25;;;3.25;;
40150;SDS011;25866;52.420;10.640;2023-09-07T14:12:51;4.53;;;3.65;;
40150;SDS011;25866;52.420;10.640;2023-09-07T14:15:17;7.13;;;3.85;;
40150;SDS011;25866;52.420;10.640;2023-09-07T14:17:42;5.40;;;3.60;;
40150;SDS011;25866;52.420;10.640;2023-09-07T14:20:08;9.82;;;4.05;;
40150;SDS011;25866;52.420;10.640;2023-09-07T14:22:34;5.50;;;3.67;;
40150;SDS011;25866;52.420;10.640;2023-09-07T14:25:00;6.93;;;3.60;;
40150;SDS011;25866;52.420;10.640;2023-09-07T14:27:26;4.55;;;3.60;;
40150;SDS011;25866;52.420;10.640;2023-09-07T14:29:52;5.07;;;3.20;;
40150;SDS011;25866;52.420;10.640;2023-09-07T14:32:17;4.63;;;3.60;;
40150;SDS011;25866;52.420;10.640;2023-09-07T14:34:43;7.88;;;3.42;;
40150;SDS011;25866;52.420;10.640;2023-09-07T14:37:09;4.05;;;3.28;;
40150;SDS011;25866;52.420;10.640;2023-09-07T14:39:35;5.05;;;3.78;;
40150;SDS011;25866;52.420;10.640;2023-09-07T14:42:01;6.00;;;3.47;;
40150;SDS011;25866;52.420;10.640;2023-09-07T14:44:27;5.95;;;3.28;;
40150;SDS011;25866;52.420;10.640;2023-09-07T14:46:53;7.38;;;3.33;;
40150;SDS011;25866;52.420;10.640;2023-09-07T14:49:19;4.10;;;3.08;;
40150;SDS011;25866;52.420;10.640;2023-09-07T14:51:46;5.25;;;3.55;;